Time;durP1;ratioP1;P1;durP2;ratioP2;P2;SDS_P1;SDS_P2;PMS_P1;PMS_P2;Temp;Humidity;BMP_temperature;BMP_pressure;BME280_temperature;BME280_humidity;BME280_pressure;Samples;Min_cycle;Max_cycle;Signal;HPM_P1;HPM_P2
2022/12/22 03:26:44;;;;;;;50.35;20.63;;;0.30;99.90;;;;;;4919959;29;20043;-66
2022/12/22 03:29:10;;;;;;;47.25;20.30;;;0.30;99.90;;;;;;4920422;29;20497;-66
2022/12/22 03:31:35;;;;;;;44.75;19.25;;;0.40;99.90;;;;;;4920013;29;20028;-66
2022/12/22 03:34:01;;;;;;;56.03;21.75;;;0.30;99.90;;;;;;4919795;29;20024;-66
2022/12/22 03:36:27;;;;;;;57.75;20.92;;;0.30;99.90;;;;;;4919730;29;20063;-67
2022/12/22 03:38:52;;;;;;;52.00;20.40;;;0.30;99.90;;;;;;4920044;29;20036;-66
2022/12/22 03:46:46;;;;;;;58.33;22.88;;;0.30;99.90;;;;;;4921398;29;20071;-67
2022/12/22 03:49:12;;;;;;;57.60;22.10;;;0.20;99.90;;;;;;4903244;29;20036;-66
2022/12/22 03:51:49;;;;;;;54.67;22.25;;;0.20;99.90;;;;;;4919714;29;20516;-67
2022/12/22 03:54:17;;;;;;;55.28;20.83;;;0.20;99.90;;;;;;4918386;29;20095;-67
2022/12/22 03:56:43;;;;;;;57.50;23.55;;;0.20;99.90;;;;;;4919114;29;20032;-66
2022/12/22 03:59:10;;;;;;;57.92;22.73;;;0.30;99.90;;;;;;4919433;29;20123;-66
2022/12/22 04:01:45;;;;;;;63.22;24.58;;;0.30;99.90;;;;;;4919523;29;20056;-66
2022/12/22 04:04:12;;;;;;;55.00;22.98;;;0.30;99.90;;;;;;4919015;29;20042;-66
2022/12/22 04:06:38;;;;;;;55.53;22.50;;;0.30;99.90;;;;;;4918331;29;20028;-66
2022/12/22 04:09:05;;;;;;;61.38;23.45;;;0.30;99.90;;;;;;4920590;29;20052;-67
2022/12/22 04:14:15;;;;;;;61.53;22.10;;;0.30;99.90;;;;;;4920785;29;20068;-67
2022/12/22 04:16:41;;;;;;;62.70;23.70;;;0.30;99.90;;;;;;4919108;29;20032;-67
2022/12/22 04:19:07;;;;;;;63.13;23.95;;;0.30;99.90;;;;;;4919105;29;20064;-66
2022/12/22 04:21:33;;;;;;;67.35;24.58;;;0.20;99.90;;;;;;4919046;29;20032;-67
2022/12/22 04:23:59;;;;;;;68.93;24.35;;;0.20;99.90;;;;;;4919214;29;20024;-66
2022/12/22 04:26:25;;;;;;;60.75;23.52;;;0.20;99.90;;;;;;4919037;29;20071;-66
2022/12/22 04:28:51;;;;;;;61.00;23.23;;;0.20;99.90;;;;;;4919019;29;20032;-66
2022/12/22 04:31:17;;;;;;;66.88;24.42;;;0.20;99.90;;;;;;4917691;29;20076;-66
2022/12/22 04:33:43;;;;;;;66.25;24.63;;;0.20;99.90;;;;;;4901968;29;20039;-66
2022/12/22 04:36:09;;;;;;;62.88;23.88;;;0.10;99.90;;;;;;4917617;29;20028;-66
2022/12/22 04:38:35;;;;;;;65.93;24.75;;;0.20;99.90;;;;;;4918713;29;20047;-66
2022/12/22 04:41:01;;;;;;;62.95;24.38;;;0.10;99.90;;;;;;4917421;29;20032;-66
2022/12/22 04:43:27;;;;;;;69.63;23.92;;;0.20;99.90;;;;;;4918937;29;20032;-66
2022/12/22 04:45:53;;;;;;;61.90;24.67;;;0.20;99.90;;;;;;4918679;29;20148;-66
2022/12/22 04:48:20;;;;;;;67.85;23.83;;;0.10;99.90;;;;;;4918596;29;20121;-66
2022/12/22 04:50:48;;;;;;;66.88;24.83;;;0.10;99.90;;;;;;4918500;29;20517;-66
2022/12/22 04:53:14;;;;;;;68.88;23.60;;;0.00;99.90;;;;;;4917271;29;20064;-66
2022/12/22 04:55:48;;;;;;;65.40;23.58;;;0.00;99.90;;;;;;4918847;29;20484;-67
2022/12/22 04:58:14;;;;;;;73.05;25.65;;;-0.10;99.90;;;;;;4916873;29;20051;-66
2022/12/22 05:00:40;;;;;;;68.07;26.25;;;-0.10;99.90;;;;;;4918143;29;20100;-66
2022/12/22 05:03:06;;;;;;;60.97;23.85;;;-0.10;99.90;;;;;;4918302;29;20063;-66
2022/12/22 05:05:33;;;;;;;73.00;24.05;;;0.20;99.90;;;;;;4901362;29;20087;-66
2022/12/22 05:07:58;;;;;;;66.18;24.20;;;-0.10;99.90;;;;;;4916858;29;20059;-67
2022/12/22 05:10:25;;;;;;;69.95;23.73;;;0.00;99.90;;;;;;4932399;29;20505;-66
2022/12/22 05:12:53;;;;;;;65.90;24.98;;;0.00;99.90;;;;;;4918507;29;20076;-68
2022/12/22 05:15:30;;;;;;;63.10;24.55;;;0.00;99.90;;;;;;4918041;29;20106;-69
2022/12/22 05:17:57;;;;;;;69.38;23.77;;;-0.10;99.90;;;;;;4918483;29;20087;-69
2022/12/22 05:20:23;;;;;;;70.68;23.63;;;0.00;99.90;;;;;;4918772;29;20032;-68
2022/12/22 05:22:49;;;;;;;74.50;25.20;;;0.00;99.90;;;;;;4918555;29;20067;-68
2022/12/22 05:25:15;;;;;;;69.32;25.65;;;0.00;99.90;;;;;;4918187;29;20380;-69
2022/12/22 05:27:45;;;;;;;81.55;27.25;;;0.00;99.90;;;;;;4918322;29;20024;-69
2022/12/22 05:30:12;;;;;;;62.90;25.10;;;0.00;99.90;;;;;;4932636;29;20480;-69
2022/12/22 05:32:38;;;;;;;65.85;23.95;;;0.10;99.90;;;;;;4918149;29;20028;-69
2022/12/22 05:35:04;;;;;;;67.65;24.02;;;0.10;99.90;;;;;;4917776;29;20035;-69
2022/12/22 05:37:30;;;;;;;71.68;24.02;;;0.10;99.90;;;;;;4917031;29;20024;-70
2022/12/22 05:39:56;;;;;;;68.22;23.85;;;0.00;99.90;;;;;;4932578;29;20059;-68
2022/12/22 05:42:36;;;;;;;67.07;26.27;;;0.00;99.90;;;;;;4917912;29;20413;-68
2022/12/22 05:45:15;;;;;;;58.05;22.77;;;0.00;99.90;;;;;;4917853;29;20028;-70
2022/12/22 05:47:42;;;;;;;75.07;25.00;;;0.00;99.90;;;;;;4916545;29;20055;-68
2022/12/22 05:50:10;;;;;;;71.25;24.50;;;0.00;99.90;;;;;;4917712;29;20036;-68
2022/12/22 05:52:35;;;;;;;68.50;25.58;;;0.00;99.90;;;;;;4917830;29;20058;-68
2022/12/22 05:55:02;;;;;;;67.38;24.58;;;0.00;99.90;;;;;;4916572;29;20056;-68
2022/12/22 05:57:28;;;;;;;68.25;24.80;;;0.00;99.90;;;;;;4917609;29;20028;-67
2022/12/22 05:59:53;;;;;;;70.30;23.45;;;0.00;99.90;;;;;;4917800;29;20441;-68
2022/12/22 06:02:19;;;;;;;65.28;24.30;;;0.00;99.90;;;;;;4917650;29;20064;-67
2022/12/22 06:04:45;;;;;;;68.60;24.55;;;0.00;99.90;;;;;;4932179;29;20024;-67
2022/12/22 06:07:11;;;;;;;69.13;24.00;;;0.00;99.90;;;;;;4916177;29;20028;-67
2022/12/22 06:09:36;;;;;;;68.45;23.60;;;0.00;99.90;;;;;;4931739;29;20386;-67
2022/12/22 06:12:02;;;;;;;70.28;25.52;;;0.00;99.90;;;;;;4932092;29;20032;-67
2022/12/22 06:14:28;;;;;;;73.78;24.80;;;0.00;99.90;;;;;;4917788;29;20107;-66
2022/12/22 06:16:53;;;;;;;75.45;25.15;;;0.00;99.90;;;;;;4931863;29;20035;-67
2022/12/22 06:19:19;;;;;;;67.05;24.13;;;0.00;99.90;;;;;;4917303;29;20036;-68
2022/12/22 06:21:45;;;;;;;76.80;26.08;;;0.00;99.90;;;;;;4919277;29;20036;-70
2022/12/22 06:24:11;;;;;;;61.40;23.27;;;0.00;99.90;;;;;;4935945;29;20034;-71
2022/12/22 06:26:36;;;;;;;67.38;24.45;;;0.10;99.90;;;;;;4920053;29;20032;-70
2022/12/22 06:29:02;;;;;;;78.70;26.25;;;0.10;99.90;;;;;;4921125;29;20058;-69
2022/12/22 06:31:28;;;;;;;65.40;25.08;;;0.10;99.90;;;;;;4919974;29;20032;-69
2022/12/22 06:33:53;;;;;;;73.65;25.38;;;0.10;99.90;;;;;;4920194;29;20119;-68
2022/12/22 06:36:19;;;;;;;71.32;23.73;;;0.10;99.90;;;;;;4919937;29;20473;-69
2022/12/22 06:38:45;;;;;;;77.07;25.55;;;0.10;99.90;;;;;;4921602;29;20381;-71
2022/12/22 06:41:10;;;;;;;67.55;23.58;;;0.10;99.90;;;;;;4921413;29;20377;-69
2022/12/22 06:43:36;;;;;;;73.18;26.38;;;0.10;99.90;;;;;;4936092;29;20452;-69
2022/12/22 06:46:01;;;;;;;78.15;25.02;;;0.10;99.90;;;;;;4919701;29;20122;-69
2022/12/22 06:48:27;;;;;;;83.03;26.65;;;0.10;99.90;;;;;;4920851;29;20108;-69
2022/12/22 06:50:58;;;;;;;71.68;24.73;;;0.10;99.90;;;;;;4921420;29;20449;-72
2022/12/22 06:53:24;;;;;;;73.28;24.20;;;0.10;99.90;;;;;;4920900;29;20035;-66
2022/12/22 06:55:50;;;;;;;74.90;25.58;;;0.10;99.90;;;;;;4921002;29;20036;-66
2022/12/22 06:58:16;;;;;;;67.47;23.45;;;0.10;99.90;;;;;;4935113;29;20042;-67
2022/12/22 07:00:42;;;;;;;70.40;22.80;;;0.10;99.90;;;;;;4920577;29;20123;-67
2022/12/22 07:03:08;;;;;;;64.35;22.95;;;0.10;99.90;;;;;;4919319;29;20024;-67
2022/12/22 07:05:34;;;;;;;69.07;23.25;;;0.10;99.90;;;;;;4920238;29;20075;-67
2022/12/22 07:07:59;;;;;;;68.55;24.35;;;0.10;99.90;;;;;;4920436;29;20048;-67
2022/12/22 07:13:18;;;;;;;73.68;24.17;;;0.10;99.90;;;;;;4920498;29;20039;-66
2022/12/22 07:15:47;;;;;;;85.20;26.60;;;0.10;99.90;;;;;;4920496;29;20099;-66
2022/12/22 07:18:13;;;;;;;75.25;25.27;;;0.10;99.90;;;;;;4920309;29;20036;-67
2022/12/22 07:20:39;;;;;;;79.15;26.67;;;0.10;99.90;;;;;;4919200;29;20119;-65
2022/12/22 07:23:04;;;;;;;72.13;26.90;;;0.10;99.90;;;;;;4920465;29;20031;-67
2022/12/22 07:25:30;;;;;;;81.65;27.40;;;0.20;99.90;;;;;;4903166;29;20028;-65
2022/12/22 07:27:56;;;;;;;79.88;27.40;;;0.20;99.90;;;;;;4920368;29;20497;-66
2022/12/22 07:30:21;;;;;;;76.53;26.65;;;0.20;99.90;;;;;;4903226;29;20456;-66
2022/12/22 07:32:47;;;;;;;72.70;24.85;;;0.30;99.90;;;;;;4903466;29;20076;-67
2022/12/22 07:35:13;;;;;;;80.60;26.83;;;0.30;99.90;;;;;;4923137;29;20461;-69
2022/12/22 07:37:38;;;;;;;71.88;24.05;;;0.30;99.90;;;;;;4921830;29;20039;-67
2022/12/22 07:40:05;;;;;;;76.30;24.17;;;0.30;99.90;;;;;;4923670;29;20099;-68
2022/12/22 07:42:45;;;;;;;75.78;25.40;;;0.30;99.90;;;;;;4922742;29;20032;-68
2022/12/22 07:45:13;;;;;;;75.80;25.02;;;0.30;99.90;;;;;;4906028;29;20100;-69
2022/12/22 07:47:39;;;;;;;79.15;25.92;;;0.20;99.90;;;;;;4922019;29;20035;-67
2022/12/22 07:50:24;;;;;;;78.90;25.63;;;0.20;99.90;;;;;;4919404;29;20085;-68
2022/12/22 07:53:10;;;;;;;82.22;24.35;;;0.20;99.90;;;;;;4920064;29;20021;-67
2022/12/22 07:55:35;;;;;;;78.47;25.77;;;0.30;99.90;;;;;;4919373;29;20036;-66
2022/12/22 07:58:01;;;;;;;79.47;24.73;;;0.30;99.90;;;;;;4902238;29;20491;-67
2022/12/22 08:00:27;;;;;;;72.50;25.17;;;0.30;99.90;;;;;;4918587;29;20040;-68
2022/12/22 08:02:55;;;;;;;65.57;23.60;;;0.30;99.90;;;;;;4919352;29;20032;-68
2022/12/22 08:05:23;;;;;;;78.38;23.95;;;0.30;99.90;;;;;;4902502;29;20032;-68
2022/12/22 08:07:49;;;;;;;71.88;24.00;;;0.30;99.90;;;;;;4918457;29;20141;-68
2022/12/22 08:10:16;;;;;;;67.03;23.58;;;0.30;99.90;;;;;;4904102;29;20107;-72
2022/12/22 08:12:41;;;;;;;67.18;23.42;;;0.30;99.90;;;;;;4920567;29;20099;-68
2022/12/22 08:15:08;;;;;;;69.93;25.05;;;0.30;99.90;;;;;;4922139;29;20032;-69
2022/12/22 08:17:35;;;;;;;74.60;23.65;;;0.30;99.90;;;;;;4919695;29;20086;-68
2022/12/22 08:20:01;;;;;;;72.25;25.55;;;0.40;99.90;;;;;;4919676;29;20028;-73
2022/12/22 08:22:28;;;;;;;62.90;23.77;;;0.40;99.90;;;;;;4902462;29;20061;-68
2022/12/22 08:24:55;;;;;;;74.25;23.95;;;0.40;99.90;;;;;;4919530;29;20036;-68
2022/12/22 08:27:37;;;;;;;73.00;26.85;;;0.40;99.90;;;;;;4917890;29;20043;-69
2022/12/22 08:30:03;;;;;;;56.45;20.90;;;0.40;99.90;;;;;;4917758;29;20039;-68
2022/12/22 08:32:29;;;;;;;63.55;23.52;;;0.40;99.90;;;;;;4917659;29;20032;-67
2022/12/22 08:34:55;;;;;;;62.35;22.08;;;0.50;99.90;;;;;;4918948;29;20030;-68
2022/12/22 08:37:23;;;;;;;61.55;22.40;;;0.50;99.90;;;;;;4918781;29;20029;-68
2022/12/22 08:39:54;;;;;;;57.15;21.48;;;0.50;99.90;;;;;;4918825;29;20036;-68
2022/12/22 08:42:21;;;;;;;55.55;21.52;;;0.50;99.90;;;;;;4918099;29;20381;-68
2022/12/22 08:44:51;;;;;;;62.65;24.15;;;0.60;99.90;;;;;;4918125;29;20032;-69
2022/12/22 08:47:18;;;;;;;65.60;22.45;;;0.50;99.90;;;;;;4918821;29;20024;-68
2022/12/22 08:49:43;;;;;;;64.03;22.73;;;0.60;99.90;;;;;;4918752;29;20040;-68
2022/12/22 08:52:09;;;;;;;67.82;24.08;;;0.60;99.90;;;;;;4918309;29;20032;-68
2022/12/22 08:54:35;;;;;;;74.13;24.75;;;0.60;99.90;;;;;;4901559;29;20051;-68
2022/12/22 08:57:00;;;;;;;72.55;24.10;;;0.50;99.90;;;;;;4918692;29;20044;-68
2022/12/22 08:59:26;;;;;;;68.72;24.30;;;0.60;99.90;;;;;;4918444;29;20102;-68
2022/12/22 09:01:52;;;;;;;71.82;25.05;;;0.60;99.90;;;;;;4918396;29;20067;-68
2022/12/22 09:04:20;;;;;;;80.80;26.80;;;0.60;99.90;;;;;;4917299;29;20028;-67
2022/12/22 09:06:46;;;;;;;76.53;25.48;;;0.60;99.90;;;;;;4918343;29;20024;-68
2022/12/22 09:09:13;;;;;;;73.35;25.73;;;0.60;99.90;;;;;;4918524;29;20055;-68
2022/12/22 09:11:39;;;;;;;72.45;24.45;;;0.60;99.90;;;;;;4917008;29;20028;-69
2022/12/22 09:14:05;;;;;;;65.00;23.92;;;0.60;99.90;;;;;;4917080;29;20449;-67
2022/12/22 09:16:32;;;;;;;69.57;23.77;;;0.60;99.90;;;;;;4916985;29;20032;-67
2022/12/22 09:18:58;;;;;;;70.65;25.00;;;0.70;99.90;;;;;;4917021;29;20383;-68
2022/12/22 09:21:24;;;;;;;70.22;25.10;;;0.70;99.90;;;;;;4918173;29;20107;-68
2022/12/22 09:23:50;;;;;;;69.10;23.63;;;0.70;99.90;;;;;;4917294;29;20024;-68
2022/12/22 09:26:19;;;;;;;72.65;25.80;;;0.70;99.90;;;;;;4918117;29;20120;-68
2022/12/22 09:28:44;;;;;;;66.25;23.60;;;0.70;99.90;;;;;;4918028;29;20036;-68
2022/12/22 09:31:10;;;;;;;74.03;24.00;;;0.70;99.90;;;;;;4918223;29;20047;-68
2022/12/22 09:33:36;;;;;;;66.90;24.77;;;0.70;99.90;;;;;;4918034;29;20036;-68
2022/12/22 09:36:11;;;;;;;67.80;24.35;;;0.70;99.90;;;;;;4916711;29;20028;-68
2022/12/22 09:38:38;;;;;;;70.38;22.83;;;0.70;99.90;;;;;;4916503;29;20393;-69
2022/12/22 09:41:30;;;;;;;70.07;24.58;;;0.70;99.90;;;;;;4917913;29;20033;-68
2022/12/22 09:44:00;;;;;;;64.57;24.00;;;0.80;99.90;;;;;;4888473;29;20078;-68
2022/12/22 09:46:31;;;;;;;71.95;24.83;;;0.80;99.90;;;;;;4918005;29;20035;-68
2022/12/22 09:48:58;;;;;;;65.70;23.90;;;0.80;99.90;;;;;;4917693;29;20047;-68
2022/12/22 09:51:23;;;;;;;60.60;23.00;;;0.80;99.90;;;;;;4900875;29;20036;-68
2022/12/22 09:53:58;;;;;;;64.20;24.42;;;0.80;99.90;;;;;;4918361;29;20035;-68
2022/12/22 09:56:26;;;;;;;61.53;23.77;;;0.80;99.90;;;;;;4921931;29;20039;-68
2022/12/22 09:58:52;;;;;;;49.13;18.50;;;0.80;99.90;;;;;;4918859;29;20032;-69
2022/12/22 10:01:34;;;;;;;63.10;23.48;;;0.80;99.90;;;;;;4936656;29;20043;-68
2022/12/22 10:04:09;;;;;;;61.72;22.55;;;0.80;99.90;;;;;;4919698;29;20032;-68
2022/12/22 10:07:11;;;;;;;59.28;21.45;;;0.80;99.90;;;;;;4936230;29;20385;-68
2022/12/22 10:09:37;;;;;;;58.10;21.52;;;0.80;99.90;;;;;;4920286;29;20362;-68
2022/12/22 10:12:05;;;;;;;60.58;22.95;;;0.80;99.90;;;;;;4935546;29;20027;-68
2022/12/22 10:14:34;;;;;;;60.10;23.02;;;0.90;99.90;;;;;;4936970;29;20039;-68
2022/12/22 10:17:31;;;;;;;58.05;21.33;;;0.90;99.90;;;;;;4935635;29;20480;-68
2022/12/22 10:20:18;;;;;;;53.35;20.67;;;1.00;99.90;;;;;;4935454;29;20058;-68
2022/12/22 10:23:15;;;;;;;59.78;22.38;;;1.10;99.90;;;;;;4936547;29;20082;-69
2022/12/22 10:25:56;;;;;;;59.83;22.52;;;1.00;99.90;;;;;;4935514;29;20046;-69
2022/12/22 10:28:25;;;;;;;55.13;21.30;;;1.00;99.90;;;;;;4936342;29;20111;-69
2022/12/22 10:31:11;;;;;;;52.80;20.20;;;1.00;99.90;;;;;;4936846;29;20487;-69
2022/12/22 10:33:38;;;;;;;59.08;21.38;;;1.00;99.90;;;;;;4935608;29;20033;-69
2022/12/22 10:36:04;;;;;;;58.13;23.40;;;1.00;99.90;;;;;;4936542;29;20466;-69
2022/12/22 10:38:36;;;;;;;60.35;22.92;;;1.10;99.90;;;;;;4935970;29;20028;-70
2022/12/22 10:41:14;;;;;;;59.88;22.23;;;1.10;99.90;;;;;;4933494;29;20035;-69
2022/12/22 10:44:17;;;;;;;283.10;92.45;;;1.20;99.90;;;;;;4934434;29;20114;-69
2022/12/22 10:46:47;;;;;;;64.13;25.10;;;1.30;99.90;;;;;;4913765;29;20040;-69
2022/12/22 10:49:27;;;;;;;63.97;25.42;;;1.30;99.90;;;;;;4935866;29;20436;-69
2022/12/22 10:52:11;;;;;;;61.40;22.50;;;1.30;99.90;;;;;;4936985;29;20028;-69
2022/12/22 10:54:37;;;;;;;60.42;22.48;;;1.30;99.90;;;;;;4937287;29;20461;-70
2022/12/22 10:57:15;;;;;;;64.88;26.20;;;1.30;99.90;;;;;;4935864;29;20108;-70
2022/12/22 10:59:52;;;;;;;67.43;24.20;;;1.30;99.90;;;;;;4929200;29;20115;-70
2022/12/22 11:02:23;;;;;;;60.13;22.67;;;1.30;99.90;;;;;;4917383;29;20446;-71
2022/12/22 11:04:50;;;;;;;53.53;22.60;;;1.40;99.90;;;;;;4918690;29;20039;-70
2022/12/22 11:07:16;;;;;;;63.30;23.23;;;1.40;99.90;;;;;;4921098;29;20477;-70
2022/12/22 11:09:42;;;;;;;62.20;23.33;;;1.40;99.90;;;;;;4939390;29;20562;-70
2022/12/22 11:12:37;;;;;;;60.33;25.42;;;1.40;99.90;;;;;;4940117;29;20024;-70
2022/12/22 11:15:30;;;;;;;58.03;22.50;;;1.50;99.90;;;;;;4923923;29;20521;-70
2022/12/22 11:18:12;;;;;;;67.65;37.83;;;1.40;99.90;;;;;;4940325;29;20083;-71
2022/12/22 11:21:07;;;;;;;53.15;24.27;;;1.40;99.90;;;;;;4941701;29;20027;-71
2022/12/22 11:23:51;;;;;;;56.17;26.05;;;1.40;99.90;;;;;;4942874;29;20028;-71
2022/12/22 11:26:35;;;;;;;67.65;25.00;;;1.50;99.90;;;;;;4924581;29;20028;-71
2022/12/22 11:29:42;;;;;;;53.90;23.55;;;1.50;99.90;;;;;;4941976;29;20539;-71
2022/12/22 11:32:32;;;;;;;63.72;22.52;;;1.50;99.90;;;;;;4830566;29;20057;-71
2022/12/22 11:35:22;;;;;;;58.55;23.05;;;1.60;99.90;;;;;;4850747;29;20055;-71
2022/12/22 11:38:05;;;;;;;55.53;23.33;;;1.60;99.90;;;;;;4914546;29;20047;-71
2022/12/22 11:40:41;;;;;;;55.42;21.58;;;1.60;99.90;;;;;;4928760;29;20040;-71
2022/12/22 11:43:35;;;;;;;50.75;22.27;;;1.60;99.90;;;;;;4928244;29;20035;-71
2022/12/22 11:46:24;;;;;;;63.10;23.70;;;1.60;99.90;;;;;;4925804;29;20039;-71
2022/12/22 11:49:30;;;;;;;56.13;22.15;;;1.60;99.90;;;;;;4908653;29;20039;-71
2022/12/22 11:52:54;;;;;;;54.88;22.05;;;1.60;99.90;;;;;;4908596;29;20035;-72
2022/12/22 11:55:36;;;;;;;51.90;21.48;;;1.70;99.90;;;;;;4879709;29;20047;-72
2022/12/22 11:58:20;;;;;;;54.63;22.23;;;1.70;99.90;;;;;;4924705;29;20119;-73
2022/12/22 12:01:01;;;;;;;48.08;20.85;;;1.60;99.90;;;;;;4923592;29;20032;-72
2022/12/22 12:04:09;;;;;;;55.67;22.30;;;1.60;99.90;;;;;;4924351;29;20028;-72
2022/12/22 12:07:36;;;;;;;44.33;20.70;;;1.60;99.90;;;;;;4882219;29;20043;-71
2022/12/22 12:10:06;;;;;;;50.78;21.02;;;1.60;99.90;;;;;;4852023;29;20330;-72
2022/12/22 12:13:02;;;;;;;53.55;22.40;;;1.70;99.90;;;;;;4904081;29;20477;-72
2022/12/22 12:15:37;;;;;;;55.80;22.58;;;1.70;99.90;;;;;;4904130;29;20477;-72
2022/12/22 12:18:36;;;;;;;52.60;21.88;;;1.70;99.90;;;;;;4905007;29;20043;-72
2022/12/22 12:21:25;;;;;;;46.03;21.15;;;1.70;99.90;;;;;;4923184;29;20036;-72
2022/12/22 12:24:22;;;;;;;53.28;21.02;;;1.70;99.90;;;;;;4923463;29;20032;-71
2022/12/22 12:26:54;;;;;;;52.28;21.60;;;1.70;99.90;;;;;;4906587;29;20028;-71
2022/12/22 12:29:36;;;;;;;52.83;21.35;;;1.70;99.90;;;;;;4905244;29;20032;-72
2022/12/22 12:32:08;;;;;;;48.55;20.58;;;1.70;99.90;;;;;;4923761;29;20039;-71
2022/12/22 12:34:39;;;;;;;56.90;22.38;;;1.80;99.90;;;;;;4906556;29;20330;-71
2022/12/22 12:37:35;;;;;;;49.15;20.98;;;1.80;99.90;;;;;;4923046;29;20035;-71
2022/12/22 12:40:10;;;;;;;49.22;20.92;;;1.80;99.90;;;;;;4905711;29;20378;-72
2022/12/22 12:42:43;;;;;;;51.10;20.67;;;1.80;99.90;;;;;;4922731;29;20112;-71
2022/12/22 12:45:35;;;;;;;52.42;21.00;;;1.80;99.90;;;;;;4926303;29;20048;-72
2022/12/22 12:48:19;;;;;;;59.58;21.92;;;1.90;99.90;;;;;;4928998;29;20396;-72
2022/12/22 12:50:51;;;;;;;55.05;19.98;;;1.90;99.90;;;;;;4925648;29;20060;-72
2022/12/22 12:53:19;;;;;;;50.03;20.75;;;2.00;99.90;;;;;;4908296;29;20044;-72
2022/12/22 12:55:54;;;;;;;51.75;21.45;;;2.10;99.90;;;;;;4924361;29;20028;-72
2022/12/22 12:58:37;;;;;;;47.42;20.95;;;2.30;99.90;;;;;;4909134;29;20056;-72
2022/12/22 13:01:25;;;;;;;53.92;22.17;;;2.50;99.90;;;;;;4908552;29;20468;-73
2022/12/22 13:03:51;;;;;;;46.50;20.65;;;2.60;99.90;;;;;;4925389;29;20053;-72
2022/12/22 13:06:45;;;;;;;43.92;19.58;;;2.80;99.90;;;;;;4907937;29;20036;-73
2022/12/22 13:09:16;;;;;;;49.13;19.75;;;3.00;99.90;;;;;;4924180;29;20059;-76
2022/12/22 13:11:41;;;;;;;50.95;22.17;;;3.10;99.90;;;;;;4923607;29;20036;-77
2022/12/22 13:14:07;;;;;;;46.17;21.08;;;3.10;99.90;;;;;;4921664;29;20084;-76
2022/12/22 13:16:36;;;;;;;48.20;21.83;;;3.10;99.90;;;;;;4920148;29;20183;-76
2022/12/22 13:19:13;;;;;;;49.65;21.10;;;3.00;99.90;;;;;;4920162;29;20064;-72
2022/12/22 13:21:44;;;;;;;43.90;20.25;;;3.00;99.90;;;;;;4904518;29;20068;-71
2022/12/22 13:24:10;;;;;;;47.10;21.08;;;2.90;99.90;;;;;;4933541;29;20039;-81
2022/12/22 13:26:40;;;;;;;40.83;18.88;;;2.90;99.90;;;;;;5176211;23;20055;-82
2022/12/22 13:29:05;;;;;;;47.90;19.92;;;2.10;99.90;;;;;;5227056;23;20099;-78
2022/12/22 13:31:43;;;;;;;53.30;21.08;;;2.80;99.90;;;;;;4964323;29;20102;-78
2022/12/22 13:34:21;;;;;;;52.92;20.27;;;2.70;99.90;;;;;;4964345;29;20032;-79
2022/12/22 13:36:53;;;;;;;45.92;21.20;;;2.80;99.90;;;;;;4947292;29;20023;-79
2022/12/22 13:39:18;;;;;;;47.70;18.17;;;2.90;99.90;;;;;;4944759;29;20490;-80
2022/12/22 13:41:48;;;;;;;45.22;18.45;;;3.10;99.90;;;;;;5055998;23;20055;-79
2022/12/22 13:44:34;;;;;;;51.15;21.10;;;3.20;99.90;;;;;;4929183;29;20015;-82
2022/12/22 13:47:09;;;;;;;43.88;19.83;;;3.20;99.90;;;;;;4996412;23;20405;-79
2022/12/22 13:49:35;;;;;;;48.05;20.35;;;3.10;99.90;;;;;;4929082;29;20070;-80
2022/12/22 13:52:02;;;;;;;44.90;20.90;;;2.90;99.90;;;;;;4928809;29;20027;-80
2022/12/22 13:54:36;;;;;;;51.80;20.40;;;2.70;99.90;;;;;;5119706;23;20014;-80
2022/12/22 13:57:10;;;;;;;50.80;20.80;;;2.60;99.90;;;;;;4933677;29;20091;-76
2022/12/22 13:59:41;;;;;;;48.30;21.00;;;2.50;99.90;;;;;;4925484;29;20035;-73
2022/12/22 14:02:12;;;;;;;44.13;20.85;;;2.40;99.90;;;;;;4925657;29;20028;-73
2022/12/22 14:04:40;;;;;;;53.30;20.63;;;2.30;99.90;;;;;;4942006;29;20066;-73
2022/12/22 14:07:24;;;;;;;49.03;20.60;;;2.20;99.90;;;;;;4945370;29;20121;-83
2022/12/22 14:09:54;;;;;;;49.45;20.45;;;2.10;99.90;;;;;;4956014;29;20027;-81
2022/12/22 14:12:27;;;;;;;48.67;20.20;;;2.00;99.90;;;;;;4956919;29;20020;-85
2022/12/22 14:14:55;;;;;;;47.35;20.35;;;1.90;99.90;;;;;;4943828;29;20020;-86
2022/12/22 14:17:26;;;;;;;54.88;22.42;;;1.80;99.90;;;;;;4941209;29;20014;-87
2022/12/22 14:25:16;;;;;;;64.30;23.23;;;1.80;99.90;;;;;;5658106;23;20125;-82
2022/12/22 14:27:44;;;;;;;;;;;2.40;99.90;;;;;;4952597;29;20036;-83
2022/12/22 14:30:17;;;;;;;56.25;21.40;;;2.10;99.90;;;;;;4930896;29;19895;-78
2022/12/22 14:32:48;;;;;;;58.40;22.30;;;1.60;99.90;;;;;;4926596;29;20095;-72
2022/12/22 14:35:20;;;;;;;59.67;23.00;;;1.70;99.90;;;;;;4924960;29;20193;-83
2022/12/22 14:37:46;;;;;;;60.88;22.27;;;1.60;99.90;;;;;;4934542;29;20062;-75
2022/12/22 14:40:31;;;;;;;56.15;22.45;;;1.60;99.90;;;;;;4921664;29;20039;-74
2022/12/22 14:42:59;;;;;;;53.75;22.17;;;1.50;99.90;;;;;;4923872;29;20102;-74
2022/12/22 14:45:25;;;;;;;55.13;22.87;;;1.50;99.90;;;;;;4936787;29;20027;-77
2022/12/22 14:47:52;;;;;;;51.50;22.77;;;1.50;99.90;;;;;;4924521;29;20032;-79
2022/12/22 14:50:24;;;;;;;55.85;22.02;;;1.50;99.90;;;;;;4924804;29;20039;-77
2022/12/22 14:53:30;;;;;;;52.25;23.35;;;0.00;99.90;;;;;;4924832;29;20468;-78
2022/12/22 14:55:56;;;;;;;53.42;22.50;;;1.50;99.90;;;;;;4932805;29;20023;-84
2022/12/22 14:58:33;;;;;;;60.70;23.63;;;1.60;99.90;;;;;;4943570;29;20042;-82
2022/12/22 15:01:19;;;;;;;58.42;23.75;;;1.50;99.90;;;;;;4955220;29;20066;-80
2022/12/22 15:03:56;;;;;;;54.42;23.83;;;1.60;99.90;;;;;;4935636;29;20024;-81
2022/12/22 15:06:26;;;;;;;51.05;21.95;;;1.60;99.90;;;;;;4930728;29;20058;-81
2022/12/22 15:09:10;;;;;;;63.28;23.27;;;1.60;99.90;;;;;;4947897;29;20042;-79
2022/12/22 15:11:40;;;;;;;55.03;22.50;;;1.60;99.90;;;;;;4936615;29;20023;-80
2022/12/22 15:14:11;;;;;;;49.55;21.40;;;1.60;99.90;;;;;;4987332;23;20063;-81
2022/12/22 15:19:15;;;;;;;58.60;23.60;;;1.60;99.90;;;;;;5779890;23;20039;-82
2022/12/22 15:21:43;;;;;;;57.92;25.17;;;1.20;99.90;;;;;;5228482;23;20047;-86
2022/12/22 15:24:14;;;;;;;68.10;29.02;;;1.60;99.90;;;;;;4924570;29;20182;-76
2022/12/22 15:26:41;;;;;;;62.00;25.17;;;1.50;99.90;;;;;;4923038;29;20376;-75
2022/12/22 15:29:07;;;;;;;64.72;25.75;;;1.60;99.90;;;;;;4923013;29;20039;-75
2022/12/22 15:31:33;;;;;;;71.45;26.85;;;1.60;99.90;;;;;;4927757;29;20027;-85
2022/12/22 15:34:01;;;;;;;67.88;25.90;;;1.60;99.90;;;;;;4942826;29;20087;-86
2022/12/22 15:36:27;;;;;;;63.90;28.00;;;1.70;99.90;;;;;;4959287;29;20083;-82
2022/12/22 15:38:53;;;;;;;66.53;27.33;;;1.70;99.90;;;;;;4942555;29;20032;-79
2022/12/22 15:41:18;;;;;;;66.72;27.02;;;1.70;99.90;;;;;;4927546;29;20034;-80
2022/12/22 15:43:44;;;;;;;70.20;28.23;;;1.70;99.90;;;;;;4929753;29;20036;-83
2022/12/22 15:46:14;;;;;;;67.95;27.52;;;1.70;99.90;;;;;;4951048;29;20480;-79
2022/12/22 15:48:40;;;;;;;65.28;26.80;;;1.70;99.90;;;;;;4954833;29;20028;-83
2022/12/22 15:51:13;;;;;;;61.33;25.92;;;1.70;99.90;;;;;;4957838;29;20035;-81
2022/12/22 15:53:38;;;;;;;63.83;27.55;;;1.70;99.90;;;;;;4956652;29;20012;-81
2022/12/22 15:56:05;;;;;;;57.47;25.80;;;1.70;99.90;;;;;;4947492;29;20050;-75
2022/12/22 15:58:34;;;;;;;63.50;28.33;;;1.70;99.90;;;;;;4929157;29;20031;-80
2022/12/22 16:01:00;;;;;;;70.55;26.38;;;1.60;99.90;;;;;;4930682;29;20035;-80
2022/12/22 16:03:26;;;;;;;64.28;26.58;;;1.60;99.90;;;;;;4944309;29;20167;-79
2022/12/22 16:05:53;;;;;;;63.53;24.95;;;1.60;99.90;;;;;;4926807;29;20039;-79
2022/12/22 16:08:31;;;;;;;62.17;25.90;;;1.50;99.90;;;;;;4926936;29;20125;-79
2022/12/22 16:10:58;;;;;;;55.83;25.83;;;1.50;99.90;;;;;;4909341;29;20119;-78
2022/12/22 16:13:29;;;;;;;60.60;24.40;;;1.50;99.90;;;;;;4925650;29;20032;-79
2022/12/22 16:15:56;;;;;;;57.20;24.38;;;1.40;99.90;;;;;;4925830;29;20036;-78
2022/12/22 16:18:22;;;;;;;55.28;24.25;;;1.40;99.90;;;;;;4942268;29;20035;-78
2022/12/22 16:20:50;;;;;;;63.67;25.23;;;1.40;99.90;;;;;;4924607;29;20032;-79
2022/12/22 16:23:20;;;;;;;50.95;22.95;;;1.30;99.90;;;;;;4924483;29;20102;-79
2022/12/22 16:25:47;;;;;;;68.63;28.45;;;1.30;99.90;;;;;;4926352;29;20031;-79
2022/12/22 16:28:31;;;;;;;65.47;25.80;;;1.30;99.90;;;;;;4926839;29;20032;-79
2022/12/22 16:30:58;;;;;;;53.47;23.23;;;1.20;99.90;;;;;;4927220;29;20372;-79
2022/12/22 16:33:24;;;;;;;56.30;24.70;;;1.20;99.90;;;;;;4927370;29;20372;-79
2022/12/22 16:35:50;;;;;;;68.45;27.60;;;1.20;99.90;;;;;;4942307;29;20031;-79
2022/12/22 16:38:15;;;;;;;57.90;23.75;;;1.10;99.90;;;;;;4927296;29;20039;-80
2022/12/22 16:40:49;;;;;;;63.72;26.52;;;1.10;99.90;;;;;;4928413;29;20499;-79
2022/12/22 16:43:54;;;;;;;60.53;24.42;;;1.10;99.90;;;;;;4943165;29;20028;-79
2022/12/22 16:46:21;;;;;;;63.47;26.95;;;1.10;99.90;;;;;;4852288;29;20026;-80